Terminal Aerodrome Forecast
Issued by NWS

Home | Current Version | Previous Version | Text Only | Print | Product List | Glossary On
Versions: 1 2 3 4 5 6 7 8 9 10 11 12 13
000
FTUS43 KDDC 110520
TAFHYS
TAF
KHYS 110520Z 1106/1206 15011KT P6SM BKN250
     FM111000 33007KT P6SM SCT025
     FM111400 34009KT P6SM BKN130
     FM111600 34014G21KT P6SM BKN120
     FM112100 34007KT P6SM FEW120=

USA.gov is the U.S. government's official web portal to all federal, state and local government web resources and services.